Time;durP1;ratioP1;P1;durP2;ratioP2;P2;SDS_P1;SDS_P2;PMS_P1;PMS_P2;Temp;Humidity;BMP_temperature;BMP_pressure;BME280_temperature;BME280_humidity;BME280_pressure;Samples;Min_cycle;Max_cycle;Signal;HPM_P1;HPM_P2
2023/03/16 00:00:46;;;;;;;;;;;4.50;99.90;;;;;;4994889;28;19922;-80
2023/03/16 00:03:18;;;;;;;;;;;4.20;99.90;;;;;;4994405;28;20008;-80
2023/03/16 00:05:45;;;;;;;;;;;3.50;99.90;;;;;;4994862;28;20056;-80
2023/03/16 00:08:11;;;;;;;;;;;3.70;99.90;;;;;;4993287;28;19929;-80
2023/03/16 00:10:36;;;;;;;;;;;3.60;99.90;;;;;;4994531;28;19921;-79
2023/03/16 00:13:02;;;;;;;;;;;3.80;99.90;;;;;;4993679;28;19929;-80
2023/03/16 00:15:28;;;;;;;;;;;3.90;99.90;;;;;;4994460;28;19960;-80
2023/03/16 00:17:54;;;;;;;;;;;3.70;99.90;;;;;;4994350;28;19921;-80
2023/03/16 00:20:19;;;;;;;;;;;3.80;99.90;;;;;;4994182;28;20322;-80
2023/03/16 00:22:45;;;;;;;;;;;3.80;99.90;;;;;;4994145;28;19922;-80
2023/03/16 00:25:13;;;;;;;;;;;3.90;99.90;;;;;;4977029;28;19921;-79
2023/03/16 00:27:40;;;;;;;;;;;3.70;99.90;;;;;;4993901;28;19926;-80
2023/03/16 00:30:06;;;;;;;;;;;4.00;99.90;;;;;;4994269;28;20375;-80
2023/03/16 00:32:32;;;;;;;;;;;3.50;99.90;;;;;;4994001;28;19918;-80
2023/03/16 00:34:58;;;;;;;;;;;3.70;99.90;;;;;;4994444;28;19984;-80
2023/03/16 00:37:24;;;;;;;;;;;4.10;99.90;;;;;;4993775;28;19961;-80
2023/03/16 00:39:51;;;;;;;;;;;3.60;99.90;;;;;;4993899;28;20507;-80
2023/03/16 00:42:17;;;;;;;;;;;3.70;99.90;;;;;;4993413;28;20052;-79
2023/03/16 00:44:43;;;;;;;;;;;3.90;99.90;;;;;;4994380;28;19922;-80
2023/03/16 00:47:13;;;;;;;;;;;4.00;99.90;;;;;;4994270;28;19933;-80
2023/03/16 00:49:41;;;;;;;;;;;3.80;99.90;;;;;;4994051;28;19925;-80
2023/03/16 00:52:07;;;;;;;;;;;3.50;99.90;;;;;;4993951;28;19922;-80
2023/03/16 00:54:33;;;;;;;;;;;3.70;99.90;;;;;;4993220;28;20528;-80
2023/03/16 00:56:59;;;;;;;;;;;3.80;99.90;;;;;;4992721;28;19922;-80
2023/03/16 00:59:25;;;;;;;;;;;4.10;99.90;;;;;;4993574;28;19922;-80
2023/03/16 01:01:51;;;;;;;;;;;4.10;99.90;;;;;;4993551;28;20135;-80
2023/03/16 01:04:18;;;;;;;;;;;3.70;99.90;;;;;;4992106;28;19921;-80
2023/03/16 01:06:44;;;;;;;;;;;3.60;99.90;;;;;;4993653;28;19922;-80
2023/03/16 01:09:10;;;;;;;;;;;4.00;99.90;;;;;;4993423;28;20326;-80
2023/03/16 01:11:35;;;;;;;;;;;4.20;99.90;;;;;;4993069;28;19917;-80
2023/03/16 01:14:01;;;;;;;;;;;3.70;99.90;;;;;;4993824;28;20294;-80
2023/03/16 01:16:27;;;;;;;;;;;3.80;99.90;;;;;;4993488;28;19976;-80
2023/03/16 01:18:53;;;;;;;;;;;3.70;99.90;;;;;;4993541;28;19921;-80
2023/03/16 01:21:20;;;;;;;;;;;3.70;99.90;;;;;;4992712;28;20012;-78
2023/03/16 01:23:46;;;;;;;;;;;3.60;99.90;;;;;;4992382;28;20462;-79
2023/03/16 01:26:11;;;;;;;;;;;4.00;99.90;;;;;;4992499;28;19965;-80
2023/03/16 01:28:37;;;;;;;;;;;3.70;99.90;;;;;;4993111;28;19922;-80
2023/03/16 01:31:05;;;;;;;;;;;3.70;99.90;;;;;;4993471;28;19941;-80
2023/03/16 01:33:31;;;;;;;;;;;3.40;99.90;;;;;;4992822;28;19925;-80
2023/03/16 01:36:01;;;;;;;;;;;3.90;99.90;;;;;;4993310;28;19922;-80
2023/03/16 01:38:27;;;;;;;;;;;3.30;99.90;;;;;;4991957;28;20012;-80
2023/03/16 01:40:53;;;;;;;;;;;4.20;99.90;;;;;;4992814;28;20060;-80
2023/03/16 01:43:20;;;;;;;;;;;4.00;99.90;;;;;;4992426;28;19922;-79
2023/03/16 01:46:13;;;;;;;;;;;3.90;99.90;;;;;;4993273;28;20406;-79
2023/03/16 01:48:44;;;;;;;;;;;3.40;99.90;;;;;;4983969;28;19929;-80
2023/03/16 01:51:12;;;;;;;;;;;3.30;99.90;;;;;;4992998;28;19921;-80
2023/03/16 01:53:39;;;;;;;;;;;3.40;99.90;;;;;;4992299;28;19925;-80
2023/03/16 01:56:07;;;;;;;;;;;3.40;99.90;;;;;;4991452;28;19930;-79
2023/03/16 01:58:33;;;;;;;;;;;4.00;99.90;;;;;;4991441;28;20330;-80
2023/03/16 02:00:58;;;;;;;;;;;3.70;99.90;;;;;;4992785;28;20029;-79
2023/03/16 02:03:25;;;;;;;;;;;3.30;99.90;;;;;;4992546;28;19929;-79
2023/03/16 02:05:58;;;;;;;;;;;3.30;99.90;;;;;;4992714;28;19968;-79
2023/03/16 02:08:24;;;;;;;;;;;3.20;99.90;;;;;;4992071;28;19922;-79
2023/03/16 02:10:53;;;;;;;;;;;3.70;99.90;;;;;;4992433;28;19965;-79
2023/03/16 02:13:20;;;;;;;;;;;3.40;99.90;;;;;;4992630;28;20406;-78
2023/03/16 02:15:46;;;;;;;;;;;4.00;99.90;;;;;;4992837;28;20342;-80
2023/03/16 02:18:12;;;;;;;;;;;3.10;99.90;;;;;;4992713;28;19922;-79
2023/03/16 02:20:41;;;;;;;;;;;3.10;99.90;;;;;;4992278;28;19969;-79
2023/03/16 02:23:08;;;;;;;;;;;3.20;99.90;;;;;;4992307;28;19922;-80
2023/03/16 02:25:54;;;;;;;;;;;3.00;99.90;;;;;;4990620;28;20268;-78
2023/03/16 02:28:28;;;;;;;;;;;3.90;99.90;;;;;;4992275;28;19922;-78
2023/03/16 02:30:54;;;;;;;;;;;3.30;99.90;;;;;;4992757;28;19928;-79
2023/03/16 02:33:20;;;;;;;;;;;3.60;99.90;;;;;;4996469;28;19922;-78
2023/03/16 02:35:46;;;;;;;;;;;3.80;99.90;;;;;;4996626;28;19933;-79
2023/03/16 02:38:11;;;;;;;;;;;3.60;99.90;;;;;;4996183;28;19922;-79
2023/03/16 02:40:37;;;;;;;;;;;3.60;99.90;;;;;;4995816;28;19929;-79
2023/03/16 02:43:14;;;;;;;;;;;3.90;99.90;;;;;;4996644;28;19922;-80
2023/03/16 02:45:45;;;;;;;;;;;3.30;99.90;;;;;;4995811;28;19999;-79
2023/03/16 02:48:14;;;;;;;;;;;3.30;99.90;;;;;;4996453;28;19922;-80
2023/03/16 02:50:45;;;;;;;;;;;4.00;99.90;;;;;;4995112;28;19929;-79
2023/03/16 02:53:12;;;;;;;;;;;3.40;99.90;;;;;;4995976;28;19929;-79
2023/03/16 02:55:37;;;;;;;;;;;4.10;99.90;;;;;;4995687;28;20015;-80
2023/03/16 02:58:03;;;;;;;;;;;4.00;99.90;;;;;;4996387;28;20379;-79
2023/03/16 03:00:29;;;;;;;;;;;3.70;99.90;;;;;;4995859;28;19922;-79
2023/03/16 03:02:54;;;;;;;;;;;4.10;99.90;;;;;;4994677;28;19929;-79
2023/03/16 03:05:20;;;;;;;;;;;3.20;99.90;;;;;;4996191;28;19921;-79
2023/03/16 03:07:45;;;;;;;;;;;3.70;99.90;;;;;;4995043;28;19932;-78
2023/03/16 03:10:11;;;;;;;;;;;3.70;99.90;;;;;;4996091;28;19922;-79
2023/03/16 03:12:37;;;;;;;;;;;3.70;99.90;;;;;;4995251;28;19928;-79
2023/03/16 03:15:03;;;;;;;;;;;4.00;99.90;;;;;;4996044;28;19921;-79
2023/03/16 03:17:29;;;;;;;;;;;3.50;99.90;;;;;;4995242;28;20286;-79
2023/03/16 03:19:58;;;;;;;;;;;3.80;99.90;;;;;;4994667;28;19928;-79
2023/03/16 03:22:25;;;;;;;;;;;3.90;99.90;;;;;;4994624;28;19930;-78
2023/03/16 03:24:51;;;;;;;;;;;4.10;99.90;;;;;;4995505;28;19922;-79
2023/03/16 03:27:16;;;;;;;;;;;3.80;99.90;;;;;;4995458;28;19922;-79
2023/03/16 03:29:43;;;;;;;;;;;4.10;99.90;;;;;;4995338;28;19922;-79
2023/03/16 03:32:09;;;;;;;;;;;4.10;99.90;;;;;;4995645;28;19980;-79
2023/03/16 03:34:35;;;;;;;;;;;3.50;99.90;;;;;;4995191;28;19921;-79
2023/03/16 03:37:01;;;;;;;;;;;3.80;99.90;;;;;;4994504;28;19945;-78
2023/03/16 03:39:27;;;;;;;;;;;4.50;99.90;;;;;;4994657;28;19921;-77
2023/03/16 03:41:53;;;;;;;;;;;4.20;99.90;;;;;;4995028;28;20394;-79
2023/03/16 03:44:19;;;;;;;;;;;3.90;99.90;;;;;;4994135;28;20005;-79
2023/03/16 03:46:45;;;;;;;;;;;3.90;99.90;;;;;;4995173;28;19952;-79
2023/03/16 03:49:10;;;;;;;;;;;4.20;99.90;;;;;;4995418;28;20281;-79
2023/03/16 03:51:36;;;;;;;;;;;3.90;99.90;;;;;;4993804;28;19976;-79
2023/03/16 03:54:01;;;;;;;;;;;4.90;99.90;;;;;;4994892;28;19921;-79
2023/03/16 03:56:27;;;;;;;;;;;3.70;99.90;;;;;;4993547;28;19921;-78
2023/03/16 03:58:53;;;;;;;;;;;4.10;99.90;;;;;;4995119;28;19922;-79
2023/03/16 04:01:18;;;;;;;;;;;4.40;99.90;;;;;;4993900;28;19969;-78
2023/03/16 04:03:44;;;;;;;;;;;4.50;99.90;;;;;;4993834;28;19922;-79
2023/03/16 04:06:09;;;;;;;;;;;3.80;99.90;;;;;;4995031;28;19976;-79
2023/03/16 04:08:35;;;;;;;;;;;4.20;99.90;;;;;;4994386;28;20353;-79
2023/03/16 04:11:01;;;;;;;;;;;4.80;99.90;;;;;;4994650;28;19921;-79
2023/03/16 04:13:26;;;;;;;;;;;4.20;99.90;;;;;;4995067;28;19921;-79
2023/03/16 04:15:56;;;;;;;;;;;4.10;99.90;;;;;;4994529;28;19922;-79
2023/03/16 04:18:22;;;;;;;;;;;3.80;99.90;;;;;;4994745;28;19928;-79
2023/03/16 04:20:48;;;;;;;;;;;3.80;99.90;;;;;;4993260;28;20013;-79
2023/03/16 04:23:15;;;;;;;;;;;4.20;99.90;;;;;;4994318;28;19984;-79
2023/03/16 04:25:41;;;;;;;;;;;4.10;99.90;;;;;;4992760;28;19921;-79
2023/03/16 04:28:07;;;;;;;;;;;4.00;99.90;;;;;;4994700;28;19929;-79
2023/03/16 04:30:33;;;;;;;;;;;4.40;99.90;;;;;;4994277;28;19922;-78
2023/03/16 04:32:59;;;;;;;;;;;3.80;99.90;;;;;;4994547;28;20264;-78
2023/03/16 04:35:25;;;;;;;;;;;4.20;99.90;;;;;;4993610;28;19921;-78
2023/03/16 04:37:50;;;;;;;;;;;4.20;99.90;;;;;;4993477;28;20465;-78
2023/03/16 04:40:16;;;;;;;;;;;3.90;99.90;;;;;;4994371;28;19922;-79
2023/03/16 04:42:43;;;;;;;;;;;3.80;99.90;;;;;;4993602;28;19929;-79
2023/03/16 04:45:08;;;;;;;;;;;4.00;99.90;;;;;;4994433;28;19925;-78
2023/03/16 04:47:34;;;;;;;;;;;3.70;99.90;;;;;;4993923;28;20330;-79
2023/03/16 04:50:01;;;;;;;;;;;4.30;99.90;;;;;;4993380;28;19921;-79
2023/03/16 04:52:27;;;;;;;;;;;3.90;99.90;;;;;;4993846;28;20374;-78
2023/03/16 04:54:52;;;;;;;;;;;4.40;99.90;;;;;;4993311;28;19968;-80
2023/03/16 04:57:18;;;;;;;;;;;4.10;99.90;;;;;;4993693;28;19980;-78
2023/03/16 04:59:44;;;;;;;;;;;4.70;99.90;;;;;;4993724;28;19971;-78
2023/03/16 05:02:09;;;;;;;;;;;4.50;99.90;;;;;;4993895;28;19922;-78
2023/03/16 05:04:35;;;;;;;;;;;4.10;99.90;;;;;;4993508;28;19976;-78
2023/03/16 05:07:01;;;;;;;;;;;4.40;99.90;;;;;;4993865;28;19921;-78
2023/03/16 05:09:26;;;;;;;;;;;4.80;99.90;;;;;;4992372;28;19929;-79
2023/03/16 05:11:52;;;;;;;;;;;4.60;99.90;;;;;;4993329;28;19925;-78
2023/03/16 05:14:17;;;;;;;;;;;4.70;99.90;;;;;;4992621;28;20403;-78
2023/03/16 05:16:43;;;;;;;;;;;4.10;99.90;;;;;;4992964;28;19921;-78
2023/03/16 05:19:08;;;;;;;;;;;4.40;99.90;;;;;;4993633;28;20020;-79
2023/03/16 05:21:36;;;;;;;;;;;4.30;99.90;;;;;;4992934;28;20279;-78
2023/03/16 05:24:03;;;;;;;;;;;4.30;99.90;;;;;;4993141;28;19921;-79
2023/03/16 05:26:29;;;;;;;;;;;3.80;99.90;;;;;;4993028;28;20559;-80
2023/03/16 05:28:54;;;;;;;;;;;4.20;99.90;;;;;;4993449;28;19925;-80
2023/03/16 05:31:20;;;;;;;;;;;4.00;99.90;;;;;;4993538;28;20380;-78
2023/03/16 05:33:45;;;;;;;;;;;3.90;99.90;;;;;;4993022;28;19922;-81
2023/03/16 05:36:11;;;;;;;;;;;3.80;99.90;;;;;;4992517;28;19922;-76
2023/03/16 05:38:38;;;;;;;;;;;3.80;99.90;;;;;;4992204;28;19921;-82
2023/03/16 05:41:04;;;;;;;;;;;4.10;99.90;;;;;;4991906;28;20007;-80
2023/03/16 05:43:29;;;;;;;;;;;3.90;99.90;;;;;;4993427;28;20422;-80
2023/03/16 05:45:56;;;;;;;;;;;4.40;99.90;;;;;;4992972;28;20013;-79
2023/03/16 05:48:24;;;;;;;;;;;4.10;99.90;;;;;;4993212;28;20008;-79
2023/03/16 05:50:50;;;;;;;;;;;4.50;99.90;;;;;;4992802;28;20016;-80
2023/03/16 05:53:16;;;;;;;;;;;4.60;99.90;;;;;;4991826;28;19969;-80
2023/03/16 05:55:41;;;;;;;;;;;4.30;99.90;;;;;;4992423;28;19925;-79
2023/03/16 05:58:07;;;;;;;;;;;4.30;99.90;;;;;;4991977;28;20426;-80
2023/03/16 06:00:32;;;;;;;;;;;4.30;99.90;;;;;;4991432;28;19925;-80
2023/03/16 06:02:58;;;;;;;;;;;4.40;99.90;;;;;;4992505;28;20044;-80
2023/03/16 06:05:24;;;;;;;;;;;4.50;99.90;;;;;;4992761;28;20359;-79
2023/03/16 06:07:50;;;;;;;;;;;4.80;99.90;;;;;;4991607;28;19984;-80
2023/03/16 06:10:16;;;;;;;;;;;4.20;99.90;;;;;;4992857;28;19925;-79
2023/03/16 06:12:41;;;;;;;;;;;3.90;99.90;;;;;;4992103;28;19922;-79
2023/03/16 06:15:07;;;;;;;;;;;4.30;99.90;;;;;;4992823;28;19929;-79
2023/03/16 06:17:33;;;;;;;;;;;3.90;99.90;;;;;;4992683;28;19922;-80
2023/03/16 06:20:00;;;;;;;;;;;3.90;99.90;;;;;;4992101;28;19924;-80
2023/03/16 06:22:26;;;;;;;;;;;4.40;99.90;;;;;;4992211;28;19922;-79
2023/03/16 06:24:51;;;;;;;;;;;4.60;99.90;;;;;;4992213;28;19948;-80
2023/03/16 06:27:19;;;;;;;;;;;4.50;99.90;;;;;;4992228;28;19980;-80
2023/03/16 06:29:45;;;;;;;;;;;4.00;99.90;;;;;;4992480;28;19922;-79
2023/03/16 06:32:11;;;;;;;;;;;4.10;99.90;;;;;;4992581;28;19921;-80
2023/03/16 06:34:36;;;;;;;;;;;4.10;99.90;;;;;;4991190;28;19929;-78
2023/03/16 06:37:02;;;;;;;;;;;4.40;99.90;;;;;;4991981;28;19922;-82
2023/03/16 06:39:28;;;;;;;;;;;4.10;99.90;;;;;;4991795;28;19987;-78
2023/03/16 06:41:54;;;;;;;;;;;4.60;99.90;;;;;;4990448;28;19953;-78
2023/03/16 06:44:20;;;;;;;;;;;4.50;99.90;;;;;;4992558;28;19976;-79
2023/03/16 06:46:45;;;;;;;;;;;4.70;99.90;;;;;;4992111;28;19925;-77
2023/03/16 06:49:11;;;;;;;;;;;4.30;99.90;;;;;;4992173;28;19928;-79
2023/03/16 06:51:36;;;;;;;;;;;4.40;99.90;;;;;;4992164;28;19922;-78
2023/03/16 06:54:02;;;;;;;;;;;4.60;99.90;;;;;;4991464;28;19918;-79
2023/03/16 06:56:28;;;;;;;;;;;4.90;99.90;;;;;;4991819;28;20286;-80
2023/03/16 06:58:53;;;;;;;;;;;4.20;99.90;;;;;;4991214;28;19925;-79
2023/03/16 07:01:19;;;;;;;;;;;4.90;99.90;;;;;;4990297;28;20364;-80
2023/03/16 07:03:45;;;;;;;;;;;3.90;99.90;;;;;;4990995;28;19921;-79
2023/03/16 07:06:11;;;;;;;;;;;4.80;99.90;;;;;;4990143;28;19933;-81
2023/03/16 07:08:36;;;;;;;;;;;4.70;99.90;;;;;;4991119;28;19922;-80
2023/03/16 07:11:02;;;;;;;;;;;4.80;99.90;;;;;;4990920;28;19922;-73
2023/03/16 07:13:27;;;;;;;;;;;5.10;99.90;;;;;;4991464;28;19925;-78
2023/03/16 07:15:53;;;;;;;;;;;5.20;99.90;;;;;;4991484;28;20335;-80
2023/03/16 07:18:19;;;;;;;;;;;5.00;99.90;;;;;;4994111;28;19976;-80
2023/03/16 07:20:45;;;;;;;;;;;4.50;99.90;;;;;;4995071;28;19972;-80
2023/03/16 07:23:11;;;;;;;;;;;4.40;99.90;;;;;;4995036;28;19968;-80
2023/03/16 07:25:37;;;;;;;;;;;4.90;99.90;;;;;;4995278;28;20005;-80
2023/03/16 07:28:02;;;;;;;;;;;4.70;99.90;;;;;;4995350;28;19925;-80
2023/03/16 07:30:28;;;;;;;;;;;4.50;99.90;;;;;;4978139;28;19976;-80
2023/03/16 07:32:53;;;;;;;;;;;4.60;99.90;;;;;;4995173;28;19922;-80
2023/03/16 07:35:20;;;;;;;;;;;5.50;99.90;;;;;;4994361;28;19929;-80
2023/03/16 07:37:46;;;;;;;;;;;4.70;99.90;;;;;;4977426;28;19928;-80
2023/03/16 07:40:13;;;;;;;;;;;4.90;99.90;;;;;;4994829;28;19930;-81
2023/03/16 07:42:39;;;;;;;;;;;4.60;99.90;;;;;;4994437;28;19925;-81
2023/03/16 07:45:05;;;;;;;;;;;5.00;99.90;;;;;;4993757;28;19921;-81
2023/03/16 07:47:32;;;;;;;;;;;4.90;99.90;;;;;;4995004;28;20287;-80
2023/03/16 07:49:58;;;;;;;;;;;5.00;99.90;;;;;;4994696;28;20024;-81
2023/03/16 07:52:24;;;;;;;;;;;5.20;99.90;;;;;;4993224;28;20403;-81
2023/03/16 07:54:50;;;;;;;;;;;5.60;99.90;;;;;;4993735;28;20000;-81
2023/03/16 07:57:15;;;;;;;;;;;5.20;99.90;;;;;;4994076;28;19947;-81
2023/03/16 07:59:41;;;;;;;;;;;5.80;99.90;;;;;;4993727;28;19925;-80
2023/03/16 08:02:11;;;;;;;;;;;5.10;99.90;;;;;;4991836;28;19921;-81
2023/03/16 08:04:37;;;;;;;;;;;4.90;99.90;;;;;;4993962;28;19922;-80
2023/03/16 08:07:02;;;;;;;;;;;5.20;99.90;;;;;;4993902;28;19928;-81
2023/03/16 08:09:28;;;;;;;;;;;5.30;99.90;;;;;;4993849;28;20004;-80
2023/03/16 08:11:54;;;;;;;;;;;5.70;99.90;;;;;;4993828;28;19929;-80
2023/03/16 08:14:19;;;;;;;;;;;5.30;99.90;;;;;;4994570;28;19926;-80
2023/03/16 08:16:46;;;;;;;;;;;5.40;99.90;;;;;;4993954;28;20023;-81
2023/03/16 08:19:12;;;;;;;;;;;5.10;99.90;;;;;;4992711;28;19932;-81
2023/03/16 08:21:37;;;;;;;;;;;5.50;99.90;;;;;;4993624;28;19922;-81
2023/03/16 08:24:03;;;;;;;;;;;5.30;99.90;;;;;;4992796;28;19968;-81
2023/03/16 08:26:28;;;;;;;;;;;5.20;99.90;;;;;;4993512;28;19926;-80
2023/03/16 08:28:54;;;;;;;;;;;5.40;99.90;;;;;;4992547;28;19922;-80
2023/03/16 08:31:20;;;;;;;;;;;5.80;99.90;;;;;;4993529;28;20012;-80
2023/03/16 08:33:47;;;;;;;;;;;5.70;99.90;;;;;;4992285;28;19922;-80
2023/03/16 08:36:16;;;;;;;;;;;5.80;99.90;;;;;;4993221;28;20390;-80
2023/03/16 08:38:43;;;;;;;;;;;5.70;99.90;;;;;;4993189;28;20068;-80
2023/03/16 08:41:11;;;;;;;;;;;5.40;99.90;;;;;;4992101;28;19933;-80
2023/03/16 08:43:36;;;;;;;;;;;5.80;99.90;;;;;;4993152;28;20009;-80
2023/03/16 08:46:04;;;;;;;;;;;5.50;99.90;;;;;;4993394;28;20068;-80
2023/03/16 08:48:32;;;;;;;;;;;5.80;99.90;;;;;;4992302;28;19921;-80
2023/03/16 08:51:00;;;;;;;;;;;5.80;99.90;;;;;;4993251;28;19922;-79
2023/03/16 08:53:27;;;;;;;;;;;5.80;99.90;;;;;;4992949;28;19929;-80
2023/03/16 08:56:00;;;;;;;;;;;5.60;99.90;;;;;;4991997;28;19922;-80
2023/03/16 08:58:26;;;;;;;;;;;5.80;99.90;;;;;;4993620;28;19922;-80
2023/03/16 09:00:52;;;;;;;;;;;6.00;99.90;;;;;;4991890;28;19969;-80
2023/03/16 09:03:18;;;;;;;;;;;6.10;99.90;;;;;;4992799;28;20375;-80
2023/03/16 09:05:44;;;;;;;;;;;5.50;99.90;;;;;;4993307;28;19921;-80
2023/03/16 09:08:09;;;;;;;;;;;5.90;99.90;;;;;;4992467;28;19929;-79
2023/03/16 09:10:35;;;;;;;;;;;5.80;99.90;;;;;;4992874;28;19922;-79
2023/03/16 09:13:01;;;;;;;;;;;5.60;99.90;;;;;;4993020;28;20434;-79
2023/03/16 09:15:27;;;;;;;;;;;5.60;99.90;;;;;;4992119;28;19921;-80
2023/03/16 09:17:53;;;;;;;;;;;6.00;99.90;;;;;;4993009;28;19921;-80
2023/03/16 09:20:19;;;;;;;;;;;5.90;99.90;;;;;;4992683;28;19921;-80
2023/03/16 09:22:45;;;;;;;;;;;5.60;99.90;;;;;;4992479;28;19922;-80
2023/03/16 09:25:11;;;;;;;;;;;6.00;99.90;;;;;;4990789;28;20057;-80
2023/03/16 09:27:37;;;;;;;;;;;5.80;99.90;;;;;;4992403;28;20282;-80
2023/03/16 09:30:03;;;;;;;;;;;6.20;99.90;;;;;;4991437;28;19922;-80
2023/03/16 09:32:29;;;;;;;;;;;5.80;99.90;;;;;;4991085;28;19981;-80
2023/03/16 09:34:55;;;;;;;;;;;5.60;99.90;;;;;;4992355;28;19976;-80
2023/03/16 09:37:21;;;;;;;;;;;6.00;99.90;;;;;;4990515;28;19985;-80
2023/03/16 09:39:47;;;;;;;;;;;5.80;99.90;;;;;;4989809;28;19983;-80
2023/03/16 09:42:12;;;;;;;;;;;5.80;99.90;;;;;;4990124;28;20139;-80
2023/03/16 09:44:44;;;;;;;;;;;5.80;99.90;;;;;;4991539;28;19925;-80
2023/03/16 09:47:10;;;;;;;;;;;5.80;99.90;;;;;;4990498;28;20294;-80
2023/03/16 09:49:39;;;;;;;;;;;5.80;99.90;;;;;;4991928;28;20033;-80
2023/03/16 09:52:13;;;;;;;;;;;5.80;99.90;;;;;;4991693;28;19925;-79
2023/03/16 09:54:44;;;;;;;;;;;6.10;99.90;;;;;;4991549;28;20008;-80
2023/03/16 09:57:15;;;;;;;;;;;6.10;99.90;;;;;;4992100;28;19976;-80
2023/03/16 09:59:41;;;;;;;;;;;6.30;99.90;;;;;;4993103;28;20485;-80
2023/03/16 10:02:21;;;;;;;;;;;6.10;99.90;;;;;;4992660;28;19969;-79
2023/03/16 10:05:06;;;;;;;;;;;5.90;99.90;;;;;;4992674;28;19928;-80
2023/03/16 10:07:41;;;;;;;;;;;5.90;99.90;;;;;;4991860;28;19929;-80
2023/03/16 10:10:07;;;;;;;;;;;6.00;99.90;;;;;;4992708;28;19922;-77
2023/03/16 10:12:36;;;;;;;;;;;6.00;99.90;;;;;;4991884;28;19921;-79
2023/03/16 10:15:04;;;;;;;;;;;6.30;99.90;;;;;;4992927;28;19929;-78
2023/03/16 10:17:39;;;;;;;;;;;6.20;99.90;;;;;;4991288;28;19921;-79
2023/03/16 10:20:09;;;;;;;;;;;5.80;99.90;;;;;;4991595;28;19991;-79
2023/03/16 10:22:41;;;;;;;;;;;5.80;99.90;;;;;;4992383;28;19921;-79
2023/03/16 10:25:42;;;;;;;;;;;6.10;99.90;;;;;;4991630;28;19929;-79
2023/03/16 10:28:15;;;;;;;;;;;5.80;99.90;;;;;;4970557;28;20012;-79
2023/03/16 10:30:41;;;;;;;;;;;5.90;99.90;;;;;;4985060;28;20330;-78
2023/03/16 10:33:23;;;;;;;;;;;6.10;99.90;;;;;;4991343;28;19922;-79
2023/03/16 10:36:11;;;;;;;;;;;5.60;99.90;;;;;;4991637;28;20430;-79
2023/03/16 10:38:39;;;;;;;;;;;5.90;99.90;;;;;;4991863;28;20057;-79
2023/03/16 10:41:20;;;;;;;;;;;6.30;99.90;;;;;;4991834;28;20020;-79
2023/03/16 10:43:48;;;;;;;;;;;6.00;99.90;;;;;;4991591;28;19922;-81
2023/03/16 10:46:13;;;;;;;;;;;6.10;99.90;;;;;;4992216;28;19925;-79
2023/03/16 10:48:40;;;;;;;;;;;6.30;99.90;;;;;;4992102;28;20490;-80
2023/03/16 10:51:12;;;;;;;;;;;6.40;99.90;;;;;;4991979;28;19921;-79
2023/03/16 10:53:43;;;;;;;;;;;6.10;99.90;;;;;;4993390;28;19925;-81
2023/03/16 10:56:24;;;;;;;;;;;6.10;99.90;;;;;;4996036;28;19926;-79
2023/03/16 10:58:50;;;;;;;;;;;6.20;99.90;;;;;;4994852;28;19929;-80
2023/03/16 11:01:17;;;;;;;;;;;6.60;99.90;;;;;;4994845;28;19949;-80
2023/03/16 11:03:46;;;;;;;;;;;6.30;99.90;;;;;;4995657;28;19921;-80
2023/03/16 11:06:21;;;;;;;;;;;6.10;99.90;;;;;;4995313;28;19921;-80
2023/03/16 11:08:47;;;;;;;;;;;6.40;99.90;;;;;;4995327;28;19930;-80
2023/03/16 11:11:15;;;;;;;;;;;6.80;99.90;;;;;;4995424;28;19921;-80
2023/03/16 11:13:45;;;;;;;;;;;6.90;99.90;;;;;;4995067;28;19922;-80
2023/03/16 11:16:17;;;;;;;;;;;5.90;99.90;;;;;;4995365;28;19921;-80
2023/03/16 11:18:44;;;;;;;;;;;6.50;99.90;;;;;;4994073;28;20013;-80
2023/03/16 11:21:28;;;;;;;;;;;6.90;99.90;;;;;;4994078;28;20367;-80
2023/03/16 11:23:55;;;;;;;;;;;6.50;99.90;;;;;;4994751;28;20315;-80
2023/03/16 11:26:32;;;;;;;;;;;6.70;99.90;;;;;;4994351;28;19921;-80
2023/03/16 11:29:08;;;;;;;;;;;6.80;99.90;;;;;;4994897;28;19933;-80
2023/03/16 11:31:39;;;;;;;;;;;6.60;99.90;;;;;;4994740;28;19928;-80
2023/03/16 11:34:12;;;;;;;;;;;6.70;99.90;;;;;;4994675;28;20411;-80
2023/03/16 11:36:50;;;;;;;;;;;6.90;99.90;;;;;;4994179;28;19928;-80
2023/03/16 11:39:39;;;;;;;;;;;6.90;99.90;;;;;;4994083;28;19988;-80
2023/03/16 11:42:24;;;;;;;;;;;6.80;99.90;;;;;;4993326;28;19921;-80
2023/03/16 11:45:00;;;;;;;;;;;6.80;99.90;;;;;;4994805;28;20004;-80
2023/03/16 11:47:50;;;;;;;;;;;7.00;99.90;;;;;;4994373;28;19922;-80
2023/03/16 11:50:27;;;;;;;;;;;7.10;99.90;;;;;;4994450;28;20287;-80
2023/03/16 11:53:12;;;;;;;;;;;6.60;99.90;;;;;;4994454;28;20000;-80
2023/03/16 11:55:50;;;;;;;;;;;7.10;99.90;;;;;;4993071;28;19945;-79
2023/03/16 11:58:27;;;;;;;;;;;7.20;99.90;;;;;;4993372;28;20024;-80
2023/03/16 12:01:00;;;;;;;;;;;7.20;99.90;;;;;;4994024;28;20020;-84
2023/03/16 12:03:38;;;;;;;;;;;7.20;99.90;;;;;;4992199;28;20015;-79
2023/03/16 12:06:22;;;;;;;;;;;7.00;99.90;;;;;;4992328;28;19921;-79
2023/03/16 12:09:07;;;;;;;;;;;7.30;99.90;;;;;;4993745;28;19922;-80
2023/03/16 12:11:36;;;;;;;;;;;7.40;99.90;;;;;;4993338;28;20008;-80
2023/03/16 12:14:11;;;;;;;;;;;7.70;99.90;;;;;;4994066;28;20000;-78
2023/03/16 12:17:03;;;;;;;;;;;7.50;99.90;;;;;;4994028;28;19928;-79
2023/03/16 12:19:29;;;;;;;;;;;7.60;99.90;;;;;;4991734;28;19988;-79
2023/03/16 12:22:12;;;;;;;;;;;7.90;99.90;;;;;;4993907;28;19976;-79
2023/03/16 12:24:41;;;;;;;;;;;7.90;99.90;;;;;;4992428;28;19929;-79
2023/03/16 12:27:11;;;;;;;;;;;8.40;99.90;;;;;;4993696;28;19922;-79
2023/03/16 12:29:45;;;;;;;;;;;8.30;99.90;;;;;;4993030;28;20426;-80
2023/03/16 12:32:18;;;;;;;;;;;8.40;99.90;;;;;;4994045;28;19928;-80
2023/03/16 12:34:49;;;;;;;;;;;8.60;99.90;;;;;;4993182;28;19926;-81
2023/03/16 12:37:36;;;;;;;;;;;8.80;99.90;;;;;;4992651;28;20315;-78
2023/03/16 12:40:07;;;;;;;;;;;8.90;99.90;;;;;;4994031;28;19930;-80
2023/03/16 12:42:52;;;;;;;;;;;8.90;99.90;;;;;;4993408;28;20008;-81
2023/03/16 12:45:25;;;;;;;;;;;8.90;99.90;;;;;;4994322;28;19929;-82
2023/03/16 12:48:11;;;;;;;;;;;9.20;99.90;;;;;;4994245;28;19921;-81
2023/03/16 12:51:09;;;;;;;;;;;9.00;99.90;;;;;;4993306;28;19928;-82
2023/03/16 12:53:42;;;;;;;;;;;9.00;99.90;;;;;;4981005;28;20009;-81
2023/03/16 12:56:12;;;;;;;;;;;8.80;99.90;;;;;;4993711;28;19928;-82
2023/03/16 12:58:42;;;;;;;;;;;8.80;99.90;;;;;;4993741;28;20012;-82
2023/03/16 13:01:10;;;;;;;;;;;9.20;99.90;;;;;;4993602;28;19968;-82
2023/03/16 13:03:36;;;;;;;;;;;8.70;99.90;;;;;;4993631;28;19922;-82
2023/03/16 13:06:02;;;;;;;;;;;8.50;99.90;;;;;;4992552;28;20275;-81
2023/03/16 13:08:39;;;;;;;;;;;8.80;99.90;;;;;;4991807;28;19957;-80
2023/03/16 13:11:09;;;;;;;;;;;8.70;99.90;;;;;;4991980;28;19921;-79
2023/03/16 13:13:49;;;;;;;;;;;8.60;99.90;;;;;;4992972;28;20017;-79
2023/03/16 13:16:23;;;;;;;;;;;8.80;99.90;;;;;;4991861;28;19953;-81
2023/03/16 13:18:48;;;;;;;;;;;8.60;99.90;;;;;;4991424;28;20012;-81
2023/03/16 13:21:19;;;;;;;;;;;8.60;99.90;;;;;;4992562;28;20001;-80
2023/03/16 13:23:57;;;;;;;;;;;7.50;99.90;;;;;;4990503;28;20012;-81
2023/03/16 13:26:37;;;;;;;;;;;8.70;99.90;;;;;;4991570;28;20382;-80
2023/03/16 13:29:18;;;;;;;;;;;8.70;99.90;;;;;;4993177;28;20012;-79
2023/03/16 13:31:43;;;;;;;;;;;8.80;99.90;;;;;;4992944;28;19929;-80
2023/03/16 13:34:14;;;;;;;;;;;8.80;99.90;;;;;;4993174;28;19921;-80
2023/03/16 13:36:40;;;;;;;;;;;8.90;99.90;;;;;;4992959;28;19922;-80
2023/03/16 13:39:19;;;;;;;;;;;9.30;99.90;;;;;;4992634;28;20049;-80
2023/03/16 13:42:13;;;;;;;;;;;10.00;99.90;;;;;;4992528;28;19968;-84
2023/03/16 13:44:40;;;;;;;;;;;10.70;99.90;;;;;;4993612;28;19930;-83
2023/03/16 13:47:06;;;;;;;;;;;11.20;99.90;;;;;;4991641;28;19922;-79
2023/03/16 13:49:32;;;;;;;;;;;11.50;99.90;;;;;;4992657;28;19968;-80
2023/03/16 13:51:58;;;;;;;;;;;11.80;99.90;;;;;;4993047;28;19921;-79
2023/03/16 13:54:23;;;;;;;;;;;12.10;99.90;;;;;;4992572;28;19921;-80
2023/03/16 13:56:51;;;;;;;;;;;12.00;99.90;;;;;;4992152;28;19929;-81
2023/03/16 13:59:17;;;;;;;;;;;11.50;99.90;;;;;;4993047;28;19980;-83
2023/03/16 14:01:43;;;;;;;;;;;11.60;99.90;;;;;;4992513;28;19926;-81
2023/03/16 14:04:12;;;;;;;;;;;11.40;99.90;;;;;;4992922;28;19929;-78
2023/03/16 14:06:40;;;;;;;;;;;11.00;99.90;;;;;;4991578;28;19928;-79
2023/03/16 14:09:16;;;;;;;;;;;11.20;99.90;;;;;;4992193;28;20008;-81
2023/03/16 14:11:43;;;;;;;;;;;11.30;99.90;;;;;;4992163;28;19921;-82
2023/03/16 14:14:14;;;;;;;;;;;11.00;99.90;;;;;;4992977;28;19932;-82
2023/03/16 14:16:41;;;;;;;;;;;10.90;99.90;;;;;;4992521;28;20299;-82
2023/03/16 14:19:18;;;;;;;;;;;10.90;99.90;;;;;;4992510;28;19922;-81
2023/03/16 14:21:44;;;;;;;;;;;10.90;99.90;;;;;;4992515;28;20378;-80
2023/03/16 14:24:28;;;;;;;;;;;10.90;99.90;;;;;;4992387;28;20292;-81
2023/03/16 14:26:53;;;;;;;;;;;10.70;99.90;;;;;;4992135;28;19922;-81
2023/03/16 14:29:23;;;;;;;;;;;10.60;99.90;;;;;;4998770;28;19922;-80
2023/03/16 14:31:49;;;;;;;;;;;10.50;99.90;;;;;;4998722;28;19925;-80
2023/03/16 14:34:26;;;;;;;;;;;10.60;99.90;;;;;;4998953;28;20494;-82
2023/03/16 14:36:51;;;;;;;;;;;10.40;99.90;;;;;;4998958;28;19949;-80